Time;durP1;ratioP1;P1;durP2;ratioP2;P2;SDS_P1;SDS_P2;PMS_P1;PMS_P2;Temp;Humidity;BMP_temperature;BMP_pressure;BME280_temperature;BME280_humidity;BME280_pressure;Samples;Min_cycle;Max_cycle;Signal;HPM_P1;HPM_P2
2021/10/30 00:01:11;;;;;;;198.23;46.80;;;;;;;12.75;55.62;94991.66;4988303;28;20142;-64
2021/10/30 00:03:36;;;;;;;232.55;48.25;;;;;;;12.94;55.60;94984.00;4989851;28;20053;-65
2021/10/30 00:06:02;;;;;;;105.28;36.00;;;;;;;13.04;54.75;94972.19;4989738;28;20388;-64
2021/10/30 00:08:29;;;;;;;474.80;49.72;;;;;;;13.12;54.49;94968.69;4987857;28;20084;-65
2021/10/30 00:10:55;;;;;;;566.60;55.28;;;;;;;13.19;53.81;94976.97;4991628;28;20045;-64
2021/10/30 00:13:21;;;;;;;492.08;57.08;;;;;;;13.07;54.02;94949.41;4993131;28;20479;-64
2021/10/30 00:15:46;;;;;;;213.60;44.60;;;;;;;13.19;53.70;94970.84;4993432;28;20036;-64
2021/10/30 00:18:11;;;;;;;406.05;51.78;;;;;;;13.17;53.75;94957.03;4993096;28;20081;-64
2021/10/30 00:20:37;;;;;;;342.30;46.95;;;;;;;13.07;53.77;94976.09;4975401;28;20022;-65
2021/10/30 00:23:02;;;;;;;385.05;49.35;;;;;;;13.17;53.52;94984.53;4992606;28;20034;-65
2021/10/30 00:25:28;;;;;;;442.52;51.15;;;;;;;12.94;53.60;94945.84;4993135;28;20492;-64
2021/10/30 00:27:53;;;;;;;583.70;56.58;;;;;;;13.21;53.47;94982.81;4993074;28;20061;-64
2021/10/30 00:30:19;;;;;;;197.15;43.60;;;;;;;13.26;53.38;94987.19;4991791;28;20117;-64
2021/10/30 00:32:44;;;;;;;179.38;41.10;;;;;;;13.28;53.20;94976.94;4993010;28;20027;-64
2021/10/30 00:35:10;;;;;;;221.25;43.90;;;;;;;13.30;53.19;94968.59;4992061;28;20034;-64
2021/10/30 00:37:35;;;;;;;134.63;35.40;;;;;;;13.41;52.94;94970.59;4992476;28;20462;-65
2021/10/30 00:40:02;;;;;;;130.55;35.78;;;;;;;13.50;52.68;94962.47;4992842;28;20034;-64
2021/10/30 00:42:27;;;;;;;551.38;42.55;;;;;;;12.95;52.54;94972.25;4992652;28;20092;-64
2021/10/30 00:44:53;;;;;;;504.08;49.22;;;;;;;12.13;52.67;94854.31;4975264;28;20467;-64
2021/10/30 00:47:18;;;;;;;193.63;40.28;;;;;;;12.90;53.05;94958.31;4992756;28;20065;-65
2021/10/30 00:49:44;;;;;;;269.75;43.10;;;;;;;12.91;53.63;94955.31;4975387;28;20027;-64
2021/10/30 00:52:13;;;;;;;450.48;51.95;;;;;;;13.03;53.51;94957.28;4990415;28;20037;-64
2021/10/30 00:54:41;;;;;;;313.40;46.67;;;;;;;12.88;53.79;94979.97;4992097;28;20027;-64
2021/10/30 00:57:07;;;;;;;368.20;50.17;;;;;;;12.67;53.98;94960.44;4992421;28;20029;-65
2021/10/30 00:59:32;;;;;;;224.05;38.33;;;;;;;12.80;53.70;94951.44;4992422;28;20114;-64
2021/10/30 01:01:58;;;;;;;132.98;38.28;;;;;;;12.89;54.04;94933.47;4990783;28;20042;-64
2021/10/30 01:04:23;;;;;;;343.40;38.70;;;;;;;12.02;54.97;94943.72;4992254;28;20050;-64
2021/10/30 01:06:51;;;;;;;425.20;54.47;;;;;;;12.57;54.80;94955.47;4990718;28;20037;-65
2021/10/30 01:09:19;;;;;;;268.65;47.22;;;;;;;12.71;54.82;94951.47;4991933;28;20105;-64
2021/10/30 01:11:44;;;;;;;124.38;41.95;;;;;;;12.83;54.78;94950.78;4990447;28;20080;-65
2021/10/30 01:14:11;;;;;;;301.15;45.25;;;;;;;12.81;54.68;94937.00;4991942;28;20034;-64
2021/10/30 01:16:38;;;;;;;138.45;38.05;;;;;;;12.95;54.37;94942.09;4990972;28;20129;-64
2021/10/30 01:19:04;;;;;;;152.60;40.53;;;;;;;13.13;53.88;94942.75;4991919;28;20034;-65
2021/10/30 01:21:35;;;;;;;331.73;46.15;;;;;;;13.26;53.95;94939.09;4991432;28;20054;-64
2021/10/30 01:24:05;;;;;;;140.38;33.97;;;;;;;13.15;53.71;94917.28;4993890;28;20714;-64
2021/10/30 01:26:31;;;;;;;318.13;37.38;;;;;;;13.14;52.98;94930.97;4984099;28;20689;-64
2021/10/30 01:28:57;;;;;;;138.18;39.80;;;;;;;12.95;53.29;94900.16;4991806;28;20093;-64
2021/10/30 01:31:22;;;;;;;97.53;33.78;;;;;;;13.13;53.22;94921.41;4991431;28;20031;-65
2021/10/30 01:33:50;;;;;;;162.65;34.15;;;;;;;13.15;53.02;94911.94;4991597;28;20092;-65
2021/10/30 01:36:17;;;;;;;131.90;32.92;;;;;;;13.40;53.10;94933.47;4990701;28;20112;-64
2021/10/30 01:38:43;;;;;;;111.35;31.52;;;;;;;13.18;52.59;94907.84;4990987;28;20030;-64
2021/10/30 01:41:09;;;;;;;50.42;27.20;;;;;;;13.26;52.19;94915.84;4991166;28;20031;-64
2021/10/30 01:43:34;;;;;;;136.52;27.80;;;;;;;12.65;51.49;94837.25;4991370;28;20029;-64
2021/10/30 01:45:59;;;;;;;80.32;26.02;;;;;;;13.00;51.83;94896.53;4991635;28;20019;-64
2021/10/30 01:48:29;;;;;;;73.85;24.13;;;;;;;13.05;51.80;94900.88;4991656;28;20417;-65
2021/10/30 01:50:55;;;;;;;80.22;23.40;;;;;;;13.06;51.77;94883.75;4989839;28;20357;-64
2021/10/30 01:53:21;;;;;;;50.88;22.02;;;;;;;13.13;51.40;94900.03;4990568;28;20026;-65
2021/10/30 01:55:46;;;;;;;76.50;24.73;;;;;;;12.96;51.42;94879.59;4991396;28;20113;-65
2021/10/30 01:58:12;;;;;;;101.45;26.73;;;;;;;13.02;51.61;94903.09;4991420;28;20063;-65
2021/10/30 02:00:38;;;;;;;209.00;31.70;;;;;;;12.92;51.30;94897.34;4990863;28;20027;-65
2021/10/30 02:03:03;;;;;;;80.30;26.45;;;;;;;12.90;51.81;94903.03;4991194;28;20027;-64
2021/10/30 02:05:29;;;;;;;107.68;24.45;;;;;;;12.91;51.84;94903.81;4991241;28;20019;-64
2021/10/30 02:07:55;;;;;;;80.13;25.88;;;;;;;12.92;51.77;94906.13;4990356;28;20037;-65
2021/10/30 02:10:20;;;;;;;180.43;30.77;;;;;;;12.94;51.88;94906.59;4989165;28;20089;-65
2021/10/30 02:12:45;;;;;;;71.03;27.35;;;;;;;12.97;52.05;94902.50;4990808;28;20027;-64
2021/10/30 02:15:11;;;;;;;69.85;26.48;;;;;;;12.93;51.99;94874.88;4991226;28;20106;-64
2021/10/30 02:17:37;;;;;;;63.97;25.02;;;;;;;13.01;51.62;94912.22;4989754;28;20022;-64
2021/10/30 02:20:05;;;;;;;146.20;27.05;;;;;;;12.95;51.78;94878.81;4991044;28;20106;-64
2021/10/30 02:22:30;;;;;;;70.13;22.63;;;;;;;12.96;51.35;94879.59;4988455;28;20046;-64
2021/10/30 02:24:56;;;;;;;124.35;24.58;;;;;;;12.35;51.12;94826.59;4990466;28;20101;-64
2021/10/30 02:27:21;;;;;;;54.75;22.17;;;;;;;12.77;51.21;94887.25;4989535;28;20472;-65
2021/10/30 02:29:46;;;;;;;89.90;23.23;;;;;;;12.92;51.52;94905.38;4991023;28;20534;-64
2021/10/30 02:32:12;;;;;;;49.17;22.92;;;;;;;12.85;51.26;94899.78;4989847;28;20022;-64
2021/10/30 02:34:39;;;;;;;44.53;21.48;;;;;;;12.98;51.21;94904.84;4990589;28;20380;-64
2021/10/30 02:37:05;;;;;;;24.90;19.67;;;;;;;12.88;50.97;94873.19;4990151;28;20018;-64
2021/10/30 02:39:30;;;;;;;48.05;21.17;;;;;;;12.88;50.87;94878.53;4989205;28;20114;-64
2021/10/30 02:41:56;;;;;;;48.33;19.65;;;;;;;12.81;50.91;94872.94;4990036;28;20022;-64
2021/10/30 02:44:21;;;;;;;72.95;21.95;;;;;;;12.94;50.75;94887.13;4990365;28;20026;-64
2021/10/30 02:46:47;;;;;;;27.60;20.15;;;;;;;12.83;50.89;94875.25;4988294;28;20053;-64
2021/10/30 02:49:12;;;;;;;53.80;21.80;;;;;;;12.77;50.54;94872.00;4989660;28;20026;-64
2021/10/30 02:51:37;;;;;;;50.20;21.40;;;;;;;12.50;50.21;94857.25;4988775;28;20472;-64
2021/10/30 02:54:04;;;;;;;118.07;24.75;;;;;;;12.25;50.45;94860.84;4989757;28;20030;-64
2021/10/30 02:56:29;;;;;;;193.45;30.58;;;;;;;12.02;51.37;94879.72;4990270;28;20014;-64
2021/10/30 02:58:55;;;;;;;72.60;28.48;;;;;;;12.27;52.06;94874.63;4990599;28;20646;-64
2021/10/30 03:01:20;;;;;;;55.90;23.33;;;;;;;12.29;51.97;94854.53;4990389;28;20037;-64
2021/10/30 03:03:46;;;;;;;77.43;27.10;;;;;;;12.37;51.88;94853.72;4990245;28;20101;-64
2021/10/30 03:06:12;;;;;;;61.50;24.63;;;;;;;12.49;51.74;94861.81;4990347;28;20053;-65
2021/10/30 03:08:37;;;;;;;43.00;23.67;;;;;;;12.61;51.65;94865.69;4989796;28;20670;-65
2021/10/30 03:11:03;;;;;;;32.83;21.25;;;;;;;12.46;51.20;94835.00;4989543;28;20126;-64
2021/10/30 03:13:29;;;;;;;60.00;21.67;;;;;;;12.65;50.49;94870.06;4988676;28;20472;-64
2021/10/30 03:15:55;;;;;;;33.83;21.38;;;;;;;12.52;50.65;94868.38;4990409;28;20049;-64
2021/10/30 03:18:21;;;;;;;65.43;22.60;;;;;;;12.55;50.69;94877.66;5003182;23;20481;-75
2021/10/30 03:20:47;;;;;;;118.63;27.08;;;;;;;12.56;50.96;94873.88;4973993;28;20037;-76
2021/10/30 03:23:12;;;;;;;87.75;22.38;;;;;;;12.45;50.89;94858.22;4990772;28;20026;-76
2021/10/30 03:25:38;;;;;;;30.80;18.33;;;;;;;12.46;50.67;94851.78;4991569;28;20030;-76
2021/10/30 03:28:04;;;;;;;134.68;22.10;;;;;;;12.53;50.76;94850.50;4991498;28;20101;-76
2021/10/30 03:30:29;;;;;;;222.97;23.30;;;;;;;11.97;50.74;94850.59;4990944;28;20023;-76
2021/10/30 03:32:55;;;;;;;227.18;30.23;;;;;;;12.12;51.21;94847.38;4974220;28;20029;-75
2021/10/30 03:35:20;;;;;;;186.77;22.58;;;;;;;11.98;51.43;94836.19;4991362;28;20117;-76
2021/10/30 03:37:46;;;;;;;47.60;17.83;;;;;;;12.02;51.78;94834.41;4973566;28;20113;-77
2021/10/30 03:40:12;;;;;;;72.80;16.65;;;;;;;11.93;51.45;94818.47;4990958;28;20110;-76
2021/10/30 03:42:37;;;;;;;76.88;16.10;;;;;;;11.87;51.50;94819.72;4991210;28;20480;-76
2021/10/30 03:45:05;;;;;;;192.40;22.90;;;;;;;11.99;51.10;94832.41;4992729;28;20030;-75
2021/10/30 03:47:31;;;;;;;227.23;22.08;;;;;;;11.92;50.94;94830.22;4995354;28;20027;-76
2021/10/30 03:49:57;;;;;;;35.25;13.90;;;;;;;11.81;51.13;94815.66;4995619;28;20487;-75
2021/10/30 03:52:22;;;;;;;34.05;14.88;;;;;;;11.90;50.94;94818.31;4994340;28;20038;-75
2021/10/30 03:54:47;;;;;;;92.57;14.80;;;;;;;11.94;51.24;94821.91;4995359;28;20097;-76
2021/10/30 03:57:14;;;;;;;33.08;14.68;;;;;;;12.00;51.25;94815.31;4997417;28;20061;-76
2021/10/30 03:59:39;;;;;;;56.22;15.40;;;;;;;11.90;50.87;94800.44;4994857;28;20046;-76
2021/10/30 04:02:05;;;;;;;40.90;14.05;;;;;;;11.87;50.78;94801.06;4994445;28;20068;-76
2021/10/30 04:04:32;;;;;;;46.30;14.93;;;;;;;11.94;51.23;94806.72;4977254;28;20027;-76
2021/10/30 04:06:58;;;;;;;55.88;14.88;;;;;;;11.88;51.22;94794.66;4994725;28;20019;-76
2021/10/30 04:09:24;;;;;;;48.13;13.98;;;;;;;11.96;50.56;94807.16;4987192;28;20027;-76
2021/10/30 04:11:50;;;;;;;54.42;15.18;;;;;;;11.94;50.57;94804.03;4994407;28;20030;-76
2021/10/30 04:14:16;;;;;;;167.15;17.38;;;;;;;11.33;51.01;94800.75;4994743;28;20033;-76
2021/10/30 04:16:41;;;;;;;61.35;16.58;;;;;;;11.32;50.78;94809.84;4977778;28;20027;-76
2021/10/30 04:19:07;;;;;;;104.57;21.55;;;;;;;11.37;51.51;94819.53;4993572;28;20101;-77
2021/10/30 04:21:32;;;;;;;165.98;17.55;;;;;;;8.91;57.68;94823.94;4976969;28;20117;-75
2021/10/30 04:23:58;;;;;;;102.97;15.75;;;;;;;8.88;59.01;94827.19;4994677;28;20037;-76
2021/10/30 04:26:25;;;;;;;90.28;16.58;;;;;;;9.48;57.57;94819.63;4995229;28;20018;-75
2021/10/30 04:28:51;;;;;;;403.98;33.78;;;;;;;9.76;56.19;94830.84;4994650;28;20037;-75
2021/10/30 04:31:24;;;;;;;77.60;20.98;;;;;;;10.21;56.04;94806.78;4994095;28;20038;-75
2021/10/30 04:33:57;;;;;;;37.40;16.13;;;;;;;10.59;54.50;94807.03;4994255;28;20034;-76
2021/10/30 04:36:25;;;;;;;75.63;17.40;;;;;;;10.71;54.29;94785.16;4994303;28;20037;-75
2021/10/30 04:38:51;;;;;;;33.45;15.13;;;;;;;10.90;53.52;94790.94;4985878;28;20034;-76
2021/10/30 04:41:18;;;;;;;33.58;15.82;;;;;;;10.96;53.22;94774.81;4993857;28;20668;-76
2021/10/30 04:43:45;;;;;;;34.40;15.65;;;;;;;11.17;53.04;94787.16;4994868;28;20653;-76
2021/10/30 04:46:13;;;;;;;55.97;15.63;;;;;;;11.18;52.17;94761.31;4977680;28;20034;-76
2021/10/30 04:48:39;;;;;;;74.10;16.05;;;;;;;11.19;52.47;94765.53;4977289;28;20033;-76
2021/10/30 04:51:06;;;;;;;82.30;17.50;;;;;;;11.22;51.91;94761.47;4993391;28;20030;-78
2021/10/30 04:53:34;;;;;;;144.07;19.20;;;;;;;11.05;52.27;94747.06;4993118;28;20030;-75
2021/10/30 04:55:59;;;;;;;27.63;14.65;;;;;;;11.10;52.02;94756.78;4992999;28;20126;-74
2021/10/30 04:58:25;;;;;;;300.67;28.25;;;;;;;11.08;51.75;94762.41;4994060;28;20480;-75
2021/10/30 05:00:50;;;;;;;61.30;16.63;;;;;;;11.05;52.14;94755.06;4993827;28;20046;-83
2021/10/30 05:03:18;;;;;;;189.25;19.98;;;;;;;11.01;52.46;94753.38;4975805;28;20054;-78
2021/10/30 05:05:43;;;;;;;89.88;17.50;;;;;;;10.91;52.32;94743.81;4993228;28;20093;-74
2021/10/30 05:08:08;;;;;;;67.88;16.10;;;;;;;10.90;52.14;94740.38;4996435;28;20644;-75
2021/10/30 05:10:34;;;;;;;49.05;13.55;;;;;;;10.94;52.23;94745.84;4997911;28;20049;-76
2021/10/30 05:12:59;;;;;;;98.35;14.65;;;;;;;10.83;51.90;94744.59;4993284;28;20527;-76
2021/10/30 05:15:24;;;;;;;100.15;13.63;;;;;;;10.69;51.49;94742.09;4993608;28;20023;-77
2021/10/30 05:17:50;;;;;;;119.55;15.38;;;;;;;10.60;51.48;94731.47;4994090;28;20026;-76
2021/10/30 05:20:15;;;;;;;188.90;16.83;;;;;;;10.10;52.18;94739.84;4993355;28;20037;-84
2021/10/30 05:22:41;;;;;;;36.33;11.90;;;;;;;10.38;52.40;94750.22;4975216;28;20026;-71
2021/10/30 05:25:06;;;;;;;142.15;14.93;;;;;;;10.34;52.54;94744.78;4991343;28;20073;-71
2021/10/30 05:27:32;;;;;;;74.72;13.35;;;;;;;10.31;52.18;94736.63;4992168;28;20042;-69
2021/10/30 05:29:57;;;;;;;189.45;16.20;;;;;;;10.35;51.88;94727.72;4992581;28;20029;-76
2021/10/30 05:32:23;;;;;;;59.55;13.32;;;;;;;10.32;52.06;94720.34;4993953;28;20065;-72
2021/10/30 05:34:48;;;;;;;37.53;12.02;;;;;;;10.43;52.34;94717.38;4974493;28;20053;-68
2021/10/30 05:37:13;;;;;;;281.65;22.45;;;;;;;10.46;52.04;94714.13;4991933;28;20050;-73
2021/10/30 05:39:40;;;;;;;46.80;14.52;;;;;;;10.43;52.71;94709.41;4991252;28;20030;-71
2021/10/30 05:42:08;;;;;;;29.00;11.82;;;;;;;10.51;52.71;94708.66;4991108;28;20391;-70
2021/10/30 05:44:34;;;;;;;79.63;14.82;;;;;;;10.62;52.23;94709.88;4991465;28;20553;-69
2021/10/30 05:46:59;;;;;;;55.40;14.05;;;;;;;10.65;51.51;94707.38;4991823;28;20031;-69
2021/10/30 05:49:26;;;;;;;144.18;15.32;;;;;;;10.41;51.58;94689.25;4991791;28;20026;-69
2021/10/30 05:51:52;;;;;;;18.88;11.68;;;;;;;10.52;51.26;94702.22;4992268;28;20034;-75
2021/10/30 05:54:17;;;;;;;17.95;12.30;;;;;;;10.45;51.52;94708.03;4992297;28;20022;-76
2021/10/30 05:56:43;;;;;;;35.70;12.35;;;;;;;10.34;50.12;94712.88;4992793;28;20031;-79
2021/10/30 05:59:08;;;;;;;76.53;13.75;;;;;;;10.02;51.26;94705.28;4992365;28;20023;-73
2021/10/30 06:01:33;;;;;;;41.83;13.68;;;;;;;9.90;51.46;94701.38;4992380;28;20464;-76
2021/10/30 06:03:59;;;;;;;21.15;12.13;;;;;;;9.92;51.78;94703.69;4993128;28;20072;-73
2021/10/30 06:06:25;;;;;;;152.45;17.10;;;;;;;9.93;51.86;94701.81;4993818;28;20033;-79
2021/10/30 06:08:50;;;;;;;23.20;11.50;;;;;;;9.95;51.97;94697.78;4993277;28;20038;-79
2021/10/30 06:11:16;;;;;;;20.85;12.63;;;;;;;10.02;51.16;94692.00;4993656;28;20040;-79
2021/10/30 06:13:41;;;;;;;19.15;11.93;;;;;;;9.93;51.79;94680.56;4993670;28;20031;-80
2021/10/30 06:16:06;;;;;;;59.28;14.02;;;;;;;9.79;51.95;94684.16;4993234;28;20427;-80
2021/10/30 06:18:32;;;;;;;30.13;13.45;;;;;;;9.86;51.42;94673.84;4993392;28;20037;-78
2021/10/30 06:20:57;;;;;;;234.07;26.73;;;;;;;9.92;51.06;94658.53;4993390;28;20026;-78
2021/10/30 06:23:23;;;;;;;102.07;16.35;;;;;;;10.02;51.23;94665.44;4993011;28;20057;-78
2021/10/30 06:25:48;;;;;;;29.90;14.02;;;;;;;10.00;51.60;94649.03;4993196;28;20089;-79
2021/10/30 06:28:18;;;;;;;26.90;12.57;;;;;;;10.14;51.14;94652.31;4993582;28;20022;-79
2021/10/30 06:30:44;;;;;;;25.73;13.25;;;;;;;10.26;51.76;94654.38;4992968;28;20121;-77
2021/10/30 06:33:09;;;;;;;29.95;12.45;;;;;;;10.30;50.74;94644.69;4992264;28;20101;-76
2021/10/30 06:35:35;;;;;;;18.60;12.50;;;;;;;10.51;50.93;94661.56;4992370;28;20034;-76
2021/10/30 06:38:00;;;;;;;15.57;12.48;;;;;;;10.52;50.72;94651.69;4992059;28;20037;-77
2021/10/30 06:40:26;;;;;;;16.02;13.73;;;;;;;10.56;51.19;94655.31;4993686;28;20030;-73
2021/10/30 06:42:51;;;;;;;14.00;11.93;;;;;;;10.72;50.70;94652.94;4990837;28;20129;-74
2021/10/30 06:45:18;;;;;;;18.63;13.68;;;;;;;10.50;50.76;94661.88;4991174;28;20041;-75
2021/10/30 06:47:43;;;;;;;20.63;13.20;;;;;;;10.69;50.37;94649.00;4992081;28;20456;-75
2021/10/30 06:50:18;;;;;;;13.13;11.73;;;;;;;10.85;49.82;94660.72;5000862;28;20022;-72
2021/10/30 06:52:44;;;;;;;13.77;12.57;;;;;;;10.89;49.48;94637.69;5005115;28;20097;-73
2021/10/30 06:55:10;;;;;;;11.85;10.85;;;;;;;11.04;49.72;94648.91;4995848;28;20596;-73
2021/10/30 06:57:36;;;;;;;10.98;10.18;;;;;;;11.05;49.09;94653.13;4992389;28;20093;-74
2021/10/30 07:00:05;;;;;;;12.07;10.88;;;;;;;11.01;48.95;94649.56;4991614;28;20027;-77
2021/10/30 07:02:32;;;;;;;12.65;11.38;;;;;;;10.96;49.07;94650.53;4991646;28;20042;-74
2021/10/30 07:04:59;;;;;;;12.48;11.27;;;;;;;11.04;49.21;94647.03;4991845;28;20026;-74
2021/10/30 07:07:24;;;;;;;11.43;10.32;;;;;;;11.26;48.84;94664.69;4992061;28;20022;-75
2021/10/30 07:09:50;;;;;;;11.38;10.18;;;;;;;11.38;48.39;94650.69;4991294;28;20030;-71
2021/10/30 07:12:15;;;;;;;11.57;10.43;;;;;;;11.38;48.39;94632.03;4991717;28;20022;-86
2021/10/30 07:14:41;;;;;;;16.92;10.73;;;;;;;11.54;46.90;94654.34;4991652;28;20092;-70
2021/10/30 07:17:06;;;;;;;13.98;9.75;;;;;;;11.45;47.09;94632.31;4991166;28;20023;-72
2021/10/30 07:19:33;;;;;;;12.57;11.23;;;;;;;11.60;46.80;94644.28;4991535;28;20061;-79
2021/10/30 07:21:59;;;;;;;13.52;10.68;;;;;;;11.64;47.40;94643.34;4990768;28;20514;-74
2021/10/30 07:24:24;;;;;;;11.65;10.65;;;;;;;11.66;46.31;94641.13;4990533;28;20105;-78
2021/10/30 07:26:50;;;;;;;10.85;9.75;;;;;;;11.85;46.84;94642.63;4991184;28;20061;-80
2021/10/30 07:29:15;;;;;;;16.10;11.18;;;;;;;12.00;46.87;94642.03;4991345;28;20484;-77
2021/10/30 07:31:41;;;;;;;46.60;12.48;;;;;;;12.03;46.58;94635.28;4990763;28;20026;-87
2021/10/30 07:34:06;;;;;;;29.02;11.75;;;;;;;12.09;45.98;94644.66;4992010;28;20073;-76
2021/10/30 07:36:32;;;;;;;25.85;12.27;;;;;;;12.03;45.99;94652.06;4992042;28;20030;-80
2021/10/30 07:38:57;;;;;;;11.18;9.98;;;;;;;12.00;45.93;94646.59;4991519;28;20023;-82
2021/10/30 07:41:23;;;;;;;12.20;10.30;;;;;;;11.96;45.77;94635.78;4991062;28;20474;-74
2021/10/30 07:43:53;;;;;;;12.00;10.95;;;;;;;11.83;45.87;94642.94;4991233;28;20060;-79
2021/10/30 07:46:20;;;;;;;10.95;10.05;;;;;;;11.71;46.30;94634.81;4991296;28;20034;-77
2021/10/30 07:48:45;;;;;;;11.32;10.25;;;;;;;11.48;46.69;94618.38;4991724;28;20414;-84
2021/10/30 07:51:11;;;;;;;12.20;11.05;;;;;;;11.45;47.08;94619.78;4991858;28;20031;-77
2021/10/30 07:53:36;;;;;;;12.98;11.88;;;;;;;11.26;47.79;94622.06;4991574;28;20018;-82
2021/10/30 07:56:02;;;;;;;11.30;10.05;;;;;;;11.13;48.55;94615.84;4994614;28;20033;-83
2021/10/30 07:58:28;;;;;;;12.48;11.27;;;;;;;11.00;48.79;94621.38;5009080;28;20022;-78
2021/10/30 08:00:53;;;;;;;13.95;12.50;;;;;;;10.94;49.29;94607.47;4992328;28;20019;-85
2021/10/30 08:03:19;;;;;;;12.05;10.95;;;;;;;11.06;49.74;94610.25;4992441;28;20026;-84
2021/10/30 08:05:44;;;;;;;13.30;12.00;;;;;;;11.09;49.54;94606.16;4992621;28;20083;-85
2021/10/30 08:08:10;;;;;;;10.32;9.43;;;;;;;11.19;49.23;94597.81;4992114;28;20022;-80
2021/10/30 08:10:35;;;;;;;11.77;10.68;;;;;;;11.33;49.52;94601.03;4998381;28;20037;-73
2021/10/30 08:13:01;;;;;;;12.23;11.13;;;;;;;11.42;49.57;94606.34;4991601;28;20037;-79
2021/10/30 08:15:26;;;;;;;11.00;9.90;;;;;;;11.44;49.08;94591.59;4991532;28;20109;-72
2021/10/30 08:17:52;;;;;;;10.55;9.55;;;;;;;11.48;49.46;94599.72;4990538;28;20027;-74
2021/10/30 08:20:18;;;;;;;11.90;10.88;;;;;;;11.62;49.40;94594.94;4989974;28;20022;-72
2021/10/30 08:22:50;;;;;;;11.20;10.20;;;;;;;11.69;48.85;94583.75;4990787;28;20026;-81
2021/10/30 08:25:16;;;;;;;9.88;8.98;;;;;;;11.76;48.67;94576.03;4998701;28;20031;-75
2021/10/30 08:27:41;;;;;;;10.85;9.90;;;;;;;11.83;48.90;94570.22;4991092;28;20035;-75
2021/10/30 08:30:07;;;;;;;10.27;9.38;;;;;;;11.86;48.61;94567.66;4990975;28;20161;-83
2021/10/30 08:32:33;;;;;;;9.90;9.10;;;;;;;11.89;49.08;94566.25;4993883;28;20069;-80
2021/10/30 08:34:59;;;;;;;10.57;9.57;;;;;;;11.94;48.90;94548.19;4994645;28;20033;-84
2021/10/30 08:37:24;;;;;;;9.65;8.70;;;;;;;12.07;48.73;94561.53;4994464;28;20027;-76
2021/10/30 08:39:50;;;;;;;10.43;9.35;;;;;;;12.05;48.49;94555.78;4994354;28;20034;-80
2021/10/30 08:42:15;;;;;;;9.18;8.10;;;;;;;12.29;48.33;94558.53;4992504;28;20035;-73
2021/10/30 08:44:41;;;;;;;9.02;8.23;;;;;;;12.33;48.55;94553.31;4992455;28;20033;-73
2021/10/30 08:47:06;;;;;;;9.93;8.30;;;;;;;12.36;48.60;94547.34;4992745;28;20030;-75
2021/10/30 08:49:37;;;;;;;9.27;8.38;;;;;;;12.39;47.87;94542.13;4992867;28;20469;-75
2021/10/30 08:52:03;;;;;;;11.90;9.25;;;;;;;12.57;47.84;94542.72;4992287;28;20034;-74
2021/10/30 08:54:28;;;;;;;10.15;9.18;;;;;;;12.59;48.08;94534.38;4992154;28;20023;-73
2021/10/30 08:56:54;;;;;;;8.80;7.97;;;;;;;12.60;47.94;94525.28;4992196;28;20022;-75
2021/10/30 08:59:41;;;;;;;10.20;9.25;;;;;;;12.64;48.07;94528.81;4992244;28;20026;-74
2021/10/30 09:02:08;;;;;;;9.18;8.38;;;;;;;12.71;47.86;94524.50;4991802;28;20030;-76
2021/10/30 09:04:34;;;;;;;9.18;8.43;;;;;;;12.92;47.88;94520.97;4992094;28;20102;-75
2021/10/30 09:07:04;;;;;;;10.20;9.30;;;;;;;13.04;47.68;94512.94;4992639;28;20484;-75
2021/10/30 09:09:31;;;;;;;8.60;7.90;;;;;;;13.12;47.68;94516.63;4992587;28;20026;-76
2021/10/30 09:12:06;;;;;;;8.77;8.07;;;;;;;13.24;47.16;94509.41;4990661;28;20395;-75
2021/10/30 09:14:42;;;;;;;9.23;8.43;;;;;;;13.50;46.88;94513.59;4992320;28;20030;-75
2021/10/30 09:17:17;;;;;;;9.00;8.30;;;;;;;13.67;46.90;94521.38;4992382;28;20359;-75
2021/10/30 09:19:52;;;;;;;9.07;8.18;;;;;;;13.69;46.72;94529.03;4992099;28;20049;-73
2021/10/30 09:22:19;;;;;;;9.07;8.32;;;;;;;13.62;46.82;94537.63;4991893;28;20030;-75
2021/10/30 09:24:50;;;;;;;10.00;8.82;;;;;;;13.79;46.32;94536.59;4991402;28;20076;-74
2021/10/30 09:27:16;;;;;;;8.73;7.83;;;;;;;13.65;46.35;94512.13;4977427;28;20426;-74
2021/10/30 09:30:08;;;;;;;9.02;7.50;;;;;;;14.07;46.21;94519.78;4992173;28;20066;-74
2021/10/30 09:32:34;;;;;;;8.30;7.57;;;;;;;14.25;45.81;94513.78;4988800;28;20068;-72
2021/10/30 09:35:01;;;;;;;8.73;7.93;;;;;;;14.26;45.70;94503.88;4991977;28;20496;-72
2021/10/30 09:37:28;;;;;;;8.73;8.00;;;;;;;14.29;45.66;94489.81;4992076;28;20407;-72
2021/10/30 09:40:14;;;;;;;9.07;8.18;;;;;;;14.67;45.33;94499.19;4990806;28;20045;-74
2021/10/30 09:42:39;;;;;;;8.80;8.02;;;;;;;13.97;46.35;94488.94;4987388;28;20038;-76
2021/10/30 09:45:06;;;;;;;8.52;7.80;;;;;;;14.40;46.12;94496.22;4992486;28;20014;-74
2021/10/30 09:47:32;;;;;;;7.97;7.22;;;;;;;14.74;45.55;94489.47;4992237;28;20034;-73
2021/10/30 09:49:57;;;;;;;7.97;7.28;;;;;;;15.04;44.78;94495.13;4991791;28;20027;-74
2021/10/30 09:52:30;;;;;;;7.63;6.95;;;;;;;15.17;44.67;94489.69;4991630;28;20471;-74
2021/10/30 09:54:56;;;;;;;7.82;7.13;;;;;;;15.44;44.06;94493.34;4991181;28;20109;-74
2021/10/30 09:57:29;;;;;;;9.80;6.88;;;;;;;15.56;43.98;94491.31;4991561;28;20113;-75
2021/10/30 10:00:01;;;;;;;7.18;6.57;;;;;;;15.70;43.60;94479.34;4991780;28;20027;-74
2021/10/30 10:02:28;;;;;;;8.02;7.18;;;;;;;15.51;43.00;94482.78;4991575;28;20277;-74
2021/10/30 10:04:59;;;;;;;6.93;6.32;;;;;;;15.72;43.23;94480.56;4991564;28;20030;-74
2021/10/30 10:07:26;;;;;;;7.50;6.88;;;;;;;16.05;42.36;94496.16;4991825;28;20113;-74
2021/10/30 10:09:52;;;;;;;7.20;6.60;;;;;;;16.33;42.25;94495.16;4991252;28;20472;-74
2021/10/30 10:12:18;;;;;;;7.00;6.40;;;;;;;16.55;41.91;94485.56;4993853;28;20073;-75
2021/10/30 10:14:43;;;;;;;6.35;5.85;;;;;;;16.46;42.09;94483.09;4991426;28;20026;-74
2021/10/30 10:17:10;;;;;;;7.13;6.60;;;;;;;16.78;41.51;94480.22;4992071;28;20022;-75
2021/10/30 10:19:36;;;;;;;6.35;5.80;;;;;;;17.00;41.14;94492.88;4991898;28;20118;-74
2021/10/30 10:22:02;;;;;;;6.70;6.20;;;;;;;17.32;40.84;94485.28;4991191;28;20476;-74
2021/10/30 10:24:30;;;;;;;5.90;5.40;;;;;;;17.52;40.38;94477.88;4991152;28;20073;-74
2021/10/30 10:27:00;;;;;;;6.30;5.80;;;;;;;17.76;39.50;94457.88;4991469;28;20101;-74
2021/10/30 10:29:42;;;;;;;6.30;5.70;;;;;;;17.97;39.19;94465.41;4991957;28;20479;-75
2021/10/30 10:32:23;;;;;;;6.50;5.90;;;;;;;18.17;38.57;94447.94;4991341;28;20042;-74
2021/10/30 10:34:49;;;;;;;5.82;4.93;;;;;;;18.15;38.51;94444.06;4991182;28;20084;-75
2021/10/30 10:37:17;;;;;;;5.90;5.50;;;;;;;18.47;38.29;94449.75;4991138;28;20062;-75
2021/10/30 10:39:52;;;;;;;5.75;5.30;;;;;;;18.64;38.17;94443.78;4990862;28;20073;-75
2021/10/30 10:42:35;;;;;;;6.65;5.38;;;;;;;19.07;37.87;94443.34;4990498;28;20019;-74
2021/10/30 10:45:15;;;;;;;5.30;4.88;;;;;;;19.06;36.91;94431.81;4990909;28;20546;-76
2021/10/30 10:47:41;;;;;;;5.85;5.18;;;;;;;19.19;36.60;94419.56;4991348;28;20026;-75
2021/10/30 10:50:17;;;;;;;5.47;4.70;;;;;;;19.25;36.48;94417.28;4990874;28;20126;-74
2021/10/30 10:53:05;;;;;;;4.72;4.35;;;;;;;19.45;36.28;94420.50;4990539;28;20395;-76
2021/10/30 10:55:37;;;;;;;5.45;4.95;;;;;;;19.78;35.88;94416.81;4990106;28;20019;-75
2021/10/30 10:58:07;;;;;;;4.88;4.50;;;;;;;19.93;35.53;94407.59;4990340;28;20141;-75
2021/10/30 11:00:34;;;;;;;6.30;4.35;;;;;;;20.31;35.65;94415.41;4990303;28;20042;-74
2021/10/30 11:03:00;;;;;;;4.15;3.85;;;;;;;20.47;34.43;94408.53;4991040;28;20030;-74
2021/10/30 11:05:34;;;;;;;8.13;5.18;;;;;;;20.51;33.87;94411.22;4990668;28;20033;-75
2021/10/30 11:08:21;;;;;;;4.40;4.00;;;;;;;20.58;33.72;94405.06;4990308;28;20060;-76
2021/10/30 11:10:46;;;;;;;4.97;4.43;;;;;;;20.78;33.13;94390.00;4989227;28;20045;-74
2021/10/30 11:13:17;;;;;;;4.80;4.40;;;;;;;21.00;33.26;94382.63;4992385;28;20026;-74
2021/10/30 11:15:44;;;;;;;4.63;4.23;;;;;;;21.35;32.99;94394.59;4990428;28;20539;-76
2021/10/30 11:21:17;;;;;;;5.43;4.80;;;;;;;21.75;32.15;94387.84;4990010;28;20037;-79